createdAt,value
2022-08-07T00:00:02.804Z,19.5
2022-08-07T00:01:12.450Z,20.1
2022-08-07T00:02:35.687Z,20.3
2022-08-07T00:03:02.750Z,20.5
2022-08-07T00:04:01.728Z,20.6
2022-08-07T00:05:03.858Z,20.5
2022-08-07T00:06:01.691Z,20.5
2022-08-07T00:07:01.571Z,20.3
2022-08-07T00:08:02.323Z,20.6
2022-08-07T00:09:16.596Z,20.5
2022-08-07T00:10:19.593Z,20.5
2022-08-07T00:11:02.048Z,20.7
2022-08-07T00:12:02.293Z,20.6
2022-08-07T00:13:03.359Z,20.6
2022-08-07T00:14:01.565Z,20.5
2022-08-07T00:15:01.542Z,20.6
2022-08-07T00:16:02.165Z,20.6
2022-08-07T00:17:02.241Z,20.4
2022-08-07T00:18:01.762Z,20.1
2022-08-07T00:19:02.373Z,20.2
2022-08-07T00:20:02.805Z,20
2022-08-07T00:21:03.414Z,19.9
2022-08-07T00:22:01.825Z,19.9
2022-08-07T00:23:01.887Z,19.9
2022-08-07T00:24:01.731Z,19.8
2022-08-07T00:25:01.847Z,19.9
2022-08-07T00:26:07.024Z,20
2022-08-07T00:27:06.595Z,20.2
2022-08-07T00:28:02.263Z,20
2022-08-07T00:29:01.573Z,20.2
2022-08-07T00:30:01.641Z,20.3
2022-08-07T00:31:04.508Z,20.3
2022-08-07T00:32:02.282Z,20.3
2022-08-07T00:33:02.286Z,20.3
2022-08-07T00:34:01.969Z,20.3
2022-08-07T00:35:01.871Z,20.4
2022-08-07T00:36:01.846Z,20.4
2022-08-07T00:37:01.691Z,20.3
2022-08-07T00:38:01.542Z,20.4
2022-08-07T00:39:01.394Z,20.7
2022-08-07T00:40:01.745Z,20.5
2022-08-07T00:41:01.610Z,20.6
2022-08-07T00:42:05.096Z,20.4
2022-08-07T00:43:02.091Z,20.3
2022-08-07T00:44:02.900Z,20.2
2022-08-07T00:45:01.925Z,20.2
2022-08-07T00:46:01.826Z,20.4
2022-08-07T00:47:01.531Z,20.5
2022-08-07T00:48:05.352Z,20.3
2022-08-07T00:49:01.887Z,20.4
2022-08-07T00:50:17.591Z,20.2
2022-08-07T00:51:02.229Z,20.5
2022-08-07T00:52:02.225Z,20.6
2022-08-07T00:53:02.132Z,20.6
2022-08-07T00:54:02.004Z,20.4
2022-08-07T00:55:04.549Z,20.4
2022-08-07T00:56:02.456Z,20.6
2022-08-07T00:57:01.489Z,20.6
2022-08-07T00:58:01.586Z,20.4
2022-08-07T00:59:01.798Z,20.6
2022-08-07T01:00:01.680Z,20.4
2022-08-07T01:01:01.985Z,20.4
2022-08-07T01:02:01.454Z,20.4
2022-08-07T01:03:01.491Z,20.4
2022-08-07T01:04:01.649Z,20.5
2022-08-07T01:05:01.514Z,20.5
2022-08-07T01:06:02.180Z,20.2
2022-08-07T01:07:02.053Z,20.2
2022-08-07T01:08:02.219Z,20.2
2022-08-07T01:09:02.768Z,20.4
2022-08-07T01:10:05.561Z,20.6
2022-08-07T01:11:22.934Z,20.6
2022-08-07T01:12:05.150Z,20.6
2022-08-07T01:13:01.672Z,20.5
2022-08-07T01:14:01.616Z,20.8
2022-08-07T01:15:03.826Z,20.8
2022-08-07T01:16:05.315Z,20.6
2022-08-07T01:17:04.170Z,20.6
2022-08-07T01:18:01.996Z,20.7
2022-08-07T01:19:01.841Z,20.5
2022-08-07T01:20:01.555Z,20.6
2022-08-07T01:21:02.233Z,20.7
2022-08-07T01:22:03.193Z,20.8
2022-08-07T01:23:12.110Z,20.9
2022-08-07T01:24:02.316Z,20.8
2022-08-07T01:25:02.482Z,20.8
2022-08-07T01:26:01.939Z,20.7
2022-08-07T01:27:01.785Z,20.7
2022-08-07T01:28:01.644Z,20.5
2022-08-07T01:29:01.502Z,20.7
2022-08-07T01:30:01.384Z,20.3
2022-08-07T01:31:01.638Z,20.5
2022-08-07T01:32:05.357Z,20.4
2022-08-07T01:33:02.390Z,19.9
2022-08-07T01:34:02.242Z,19.1
2022-08-07T01:35:01.852Z,19.6
2022-08-07T01:36:06.076Z,20
2022-08-07T01:37:01.437Z,20
2022-08-07T01:38:01.638Z,19.8
2022-08-07T01:39:01.756Z,18.8
2022-08-07T01:40:01.549Z,18.9
2022-08-07T01:41:01.677Z,19.6
2022-08-07T01:42:07.807Z,19.8
2022-08-07T01:43:01.571Z,19.9
2022-08-07T01:44:02.193Z,19.8
2022-08-07T01:45:02.117Z,19.3
2022-08-07T01:46:01.882Z,19.8
2022-08-07T01:47:14.262Z,20
2022-08-07T01:48:16.735Z,19
2022-08-07T01:49:02.273Z,18.4
2022-08-07T01:50:01.607Z,19
2022-08-07T01:51:08.295Z,19.6
2022-08-07T01:52:04.692Z,19.5
2022-08-07T01:53:08.482Z,19.5
2022-08-07T01:54:08.635Z,19.6
2022-08-07T01:55:02.058Z,18.9
2022-08-07T01:56:01.719Z,19.2
2022-08-07T01:57:01.766Z,18.5
2022-08-07T01:58:07.000Z,19
2022-08-07T01:59:01.837Z,19.3
2022-08-07T02:00:02.077Z,19.4
2022-08-07T02:01:09.647Z,19.5
2022-08-07T02:02:04.122Z,19.8
2022-08-07T02:03:12.825Z,19.9
2022-08-07T02:04:02.335Z,19.5
2022-08-07T02:05:01.359Z,18.9
2022-08-07T02:06:01.709Z,18.9
2022-08-07T02:07:01.590Z,19.3
2022-08-07T02:08:01.367Z,19.7
2022-08-07T02:09:03.728Z,19.5
2022-08-07T02:10:01.352Z,19.6
2022-08-07T02:11:03.420Z,19.8
2022-08-07T02:12:03.131Z,19.7
2022-08-07T02:13:01.709Z,19.2
2022-08-07T02:14:02.576Z,19.2
2022-08-07T02:15:01.596Z,19.2
2022-08-07T02:16:01.504Z,18.9
2022-08-07T02:17:02.184Z,19.3
2022-08-07T02:18:02.029Z,19.5
2022-08-07T02:19:01.906Z,19.7
2022-08-07T02:20:03.858Z,19.6
2022-08-07T02:21:06.255Z,19.8
2022-08-07T02:22:02.820Z,19.8
2022-08-07T02:23:02.047Z,20.1
2022-08-07T02:24:01.885Z,20
2022-08-07T02:25:01.764Z,19.2
2022-08-07T02:26:11.147Z,18.6
2022-08-07T02:27:02.528Z,18.9
2022-08-07T02:28:01.663Z,18.9
2022-08-07T02:29:01.549Z,19.2
2022-08-07T02:30:03.520Z,18.4
2022-08-07T02:31:10.447Z,19
2022-08-07T02:32:02.125Z,18.6
2022-08-07T02:33:08.873Z,18
2022-08-07T02:34:04.239Z,18.9
2022-08-07T02:35:02.267Z,19
2022-08-07T02:36:27.749Z,19.2
2022-08-07T02:37:01.449Z,18.9
2022-08-07T02:38:02.072Z,19.5
2022-08-07T02:39:01.910Z,19.4
2022-08-07T02:40:12.253Z,19.8
2022-08-07T02:41:03.689Z,19
2022-08-07T02:42:02.269Z,19.7
2022-08-07T02:43:01.412Z,19.8
2022-08-07T02:44:01.921Z,19.8
2022-08-07T02:45:07.348Z,19.9
2022-08-07T02:46:02.723Z,19.8
2022-08-07T02:47:01.824Z,20
2022-08-07T02:48:02.018Z,18.6
2022-08-07T02:49:03.253Z,18.1
2022-08-07T02:50:01.986Z,18.8
2022-08-07T02:51:02.127Z,19.2
2022-08-07T02:52:01.976Z,19.2
2022-08-07T02:53:03.582Z,19
2022-08-07T02:54:02.074Z,19.3
2022-08-07T02:55:01.957Z,19.2
2022-08-07T02:56:02.697Z,19.2
2022-08-07T02:57:02.071Z,19.4
2022-08-07T02:58:02.276Z,19.7
2022-08-07T02:59:01.555Z,19.7
2022-08-07T03:00:04.804Z,19.3
2022-08-07T03:01:02.303Z,18.8
2022-08-07T03:02:02.326Z,19.1
2022-08-07T03:03:05.816Z,19.2
2022-08-07T03:04:03.274Z,19.6
2022-08-07T03:05:04.042Z,19.6
2022-08-07T03:06:01.476Z,19.3
2022-08-07T03:07:03.325Z,19.2
2022-08-07T03:08:05.523Z,19.2
2022-08-07T03:09:01.392Z,19.7
2022-08-07T03:10:02.256Z,19.6
2022-08-07T03:11:02.294Z,19.7
2022-08-07T03:12:02.649Z,19.6
2022-08-07T03:13:02.289Z,19.3
2022-08-07T03:14:02.257Z,19.4
2022-08-07T03:15:02.324Z,19.7
2022-08-07T03:16:01.844Z,19.8
2022-08-07T03:17:03.604Z,19.8
2022-08-07T03:18:01.541Z,19.9
2022-08-07T03:19:01.365Z,19.6
2022-08-07T03:20:01.410Z,18.7
2022-08-07T03:21:02.279Z,17.9
2022-08-07T03:22:01.849Z,18
2022-08-07T03:23:01.706Z,18
2022-08-07T03:24:21.381Z,18.9
2022-08-07T03:25:01.736Z,19.1
2022-08-07T03:26:01.590Z,19
2022-08-07T03:27:01.472Z,18.2
2022-08-07T03:28:09.275Z,18
2022-08-07T03:29:02.029Z,18.2
2022-08-07T03:30:03.726Z,17.6
2022-08-07T03:31:02.133Z,17.4
2022-08-07T03:32:01.755Z,17.2
2022-08-07T03:33:01.964Z,18.1
2022-08-07T03:34:01.374Z,17.7
2022-08-07T03:35:17.262Z,18.7
2022-08-07T03:36:01.929Z,19
2022-08-07T03:37:12.017Z,17.5
2022-08-07T03:38:01.498Z,17.1
2022-08-07T03:39:05.198Z,18.3
2022-08-07T03:40:13.358Z,18.6
2022-08-07T03:41:01.680Z,18.6
2022-08-07T03:42:01.408Z,19.1
2022-08-07T03:43:01.792Z,18.4
2022-08-07T03:44:01.734Z,17.4
2022-08-07T03:45:01.549Z,18.3
2022-08-07T03:46:02.846Z,19
2022-08-07T03:47:10.644Z,19.1
2022-08-07T03:48:01.469Z,19.3
2022-08-07T03:49:02.276Z,19.1
2022-08-07T03:50:02.262Z,18.8
2022-08-07T03:51:02.134Z,19
2022-08-07T03:52:02.132Z,18.3
2022-08-07T03:53:02.002Z,19.2
2022-08-07T03:54:33.516Z,18.9
2022-08-07T03:55:06.352Z,18.5
2022-08-07T03:56:03.876Z,18.9
2022-08-07T03:57:03.870Z,19.2
2022-08-07T03:58:18.377Z,19
2022-08-07T03:59:07.626Z,18.7
2022-08-07T04:00:03.004Z,18.9
2022-08-07T04:01:02.227Z,18.3
2022-08-07T04:02:02.201Z,19
2022-08-07T04:03:03.696Z,19.1
2022-08-07T04:04:04.818Z,18.2
2022-08-07T04:05:01.963Z,17.6
2022-08-07T04:06:01.840Z,18.6
2022-08-07T04:07:01.951Z,18.8
2022-08-07T04:08:02.093Z,19.1
2022-08-07T04:09:01.991Z,18.9
2022-08-07T04:10:02.210Z,19
2022-08-07T04:12:15.788Z,18.5
2022-08-07T04:12:21.589Z,17.7
2022-08-07T04:13:01.621Z,18.6
2022-08-07T04:14:09.163Z,17.7
2022-08-07T04:15:02.304Z,17.2
2022-08-07T04:16:02.140Z,17.1
2022-08-07T04:17:03.099Z,17.3
2022-08-07T04:18:31.570Z,17
2022-08-07T04:19:04.003Z,18
2022-08-07T04:20:01.376Z,18
2022-08-07T04:21:02.171Z,17.1
2022-08-07T04:22:06.173Z,16.7
2022-08-07T04:23:02.165Z,17.3
2022-08-07T04:24:03.396Z,17
2022-08-07T04:25:02.030Z,16.6
2022-08-07T04:26:02.282Z,17.9
2022-08-07T04:27:01.509Z,17.3
2022-08-07T04:28:01.563Z,17.6
2022-08-07T04:29:02.956Z,17
2022-08-07T04:30:03.248Z,17.3
2022-08-07T04:31:02.042Z,18
2022-08-07T04:32:02.832Z,17.5
2022-08-07T04:33:01.838Z,18
2022-08-07T04:34:01.925Z,18.1
2022-08-07T04:35:01.791Z,18.1
2022-08-07T04:36:01.631Z,18.4
2022-08-07T04:37:01.454Z,18.3
2022-08-07T04:38:03.597Z,18.8
2022-08-07T04:39:01.510Z,18.3
2022-08-07T04:40:02.067Z,18.4
2022-08-07T04:41:01.958Z,19
2022-08-07T04:42:01.951Z,18.5
2022-08-07T04:43:03.439Z,19
2022-08-07T04:44:10.982Z,19
2022-08-07T04:45:02.773Z,19.2
2022-08-07T04:46:02.294Z,19.1
2022-08-07T04:47:04.314Z,19.2
2022-08-07T04:48:04.527Z,18.9
2022-08-07T04:49:01.711Z,18.2
2022-08-07T04:50:02.091Z,19.2
2022-08-07T04:51:01.507Z,19.1
2022-08-07T04:52:02.263Z,19.3
2022-08-07T04:53:03.069Z,19.3
2022-08-07T04:54:05.963Z,19.1
2022-08-07T04:55:01.338Z,19.4
2022-08-07T04:58:08.507Z,19.3
2022-08-07T04:58:08.970Z,19.2
2022-08-07T04:58:18.039Z,19.4
2022-08-07T04:59:18.722Z,19.2
2022-08-07T05:00:09.151Z,18.6
2022-08-07T05:01:02.066Z,18.4
2022-08-07T05:02:01.664Z,18.1
2022-08-07T05:03:01.517Z,18.5
2022-08-07T05:04:07.184Z,17.8
2022-08-07T05:05:01.521Z,17.9
2022-08-07T05:06:01.869Z,17.9
2022-08-07T05:07:09.743Z,18.8
2022-08-07T05:08:01.345Z,18.7
2022-08-07T05:09:02.556Z,18.6
2022-08-07T05:10:01.934Z,18.6
2022-08-07T05:11:02.490Z,18.6
2022-08-07T05:12:02.447Z,18.5
2022-08-07T05:13:10.176Z,19.1
2022-08-07T05:14:45.106Z,18.7
2022-08-07T05:15:05.017Z,19.1
2022-08-07T05:16:04.659Z,19.3
2022-08-07T05:17:01.718Z,19
2022-08-07T05:18:06.298Z,19.5
2022-08-07T05:19:02.235Z,19.3
2022-08-07T05:20:05.386Z,18.4
2022-08-07T05:21:01.879Z,19.2
2022-08-07T05:22:04.655Z,19.6
2022-08-07T05:23:02.191Z,19.7
2022-08-07T05:24:02.029Z,18.8
2022-08-07T05:25:01.902Z,19
2022-08-07T05:26:11.365Z,19
2022-08-07T05:27:02.062Z,19.2
2022-08-07T05:28:16.544Z,19.5
2022-08-07T05:29:04.144Z,19.9
2022-08-07T05:30:02.347Z,19.2
2022-08-07T05:31:01.690Z,19.6
2022-08-07T05:32:01.576Z,19.8
2022-08-07T05:33:02.453Z,19.6
2022-08-07T05:34:05.007Z,19.2
2022-08-07T05:35:02.165Z,19.7
2022-08-07T05:36:02.160Z,19.3
2022-08-07T05:37:02.067Z,19.1
2022-08-07T05:38:08.514Z,19.1
2022-08-07T05:39:08.702Z,18.7
2022-08-07T05:40:06.229Z,18.7
2022-08-07T05:41:02.296Z,18.9
2022-08-07T05:42:04.473Z,19.4
2022-08-07T05:43:02.305Z,19
2022-08-07T05:44:08.907Z,19.5
2022-08-07T05:45:04.673Z,19.2
2022-08-07T05:46:02.017Z,19.7
2022-08-07T05:47:02.063Z,19.2
2022-08-07T05:48:02.951Z,19.1
2022-08-07T05:49:08.877Z,19.3
2022-08-07T05:50:01.497Z,20
2022-08-07T05:51:01.377Z,19.6
2022-08-07T05:52:01.835Z,19.2
2022-08-07T05:53:01.399Z,19.7
2022-08-07T05:54:08.993Z,19.5
2022-08-07T05:55:04.194Z,19.7
2022-08-07T05:56:02.617Z,19.3
2022-08-07T05:57:01.530Z,19.1
2022-08-07T05:58:01.387Z,19.6
2022-08-07T05:59:02.152Z,19.9
2022-08-07T06:00:01.606Z,20
2022-08-07T06:01:04.812Z,19.4
2022-08-07T06:02:02.065Z,19.6
2022-08-07T06:03:02.302Z,19.8
2022-08-07T06:04:01.822Z,19.3
2022-08-07T06:05:02.058Z,19.7
2022-08-07T06:06:01.665Z,19.4
2022-08-07T06:07:03.593Z,19.4
2022-08-07T06:08:05.533Z,19.4
2022-08-07T06:09:04.549Z,19.3
2022-08-07T06:10:04.964Z,19.6
2022-08-07T06:11:03.865Z,19.7
2022-08-07T06:12:01.855Z,19.5
2022-08-07T06:13:02.179Z,19.4
2022-08-07T06:14:11.149Z,19.6
2022-08-07T06:15:02.976Z,19.5
2022-08-07T06:16:01.413Z,19.6
2022-08-07T06:17:02.021Z,19.8
2022-08-07T06:18:02.099Z,19.4
2022-08-07T06:19:01.541Z,19.4
2022-08-07T06:20:04.380Z,19.7
2022-08-07T06:22:12.005Z,20
2022-08-07T06:22:12.280Z,20
2022-08-07T06:23:25.354Z,19.4
2022-08-07T06:24:38.915Z,19.6
2022-08-07T06:25:01.766Z,20.1
2022-08-07T06:26:02.043Z,19.8
2022-08-07T06:27:03.630Z,20
2022-08-07T06:28:02.693Z,20.1
2022-08-07T06:29:01.596Z,20
2022-08-07T06:30:02.075Z,19.7
2022-08-07T06:31:01.441Z,19.8
2022-08-07T06:32:02.339Z,19.4
2022-08-07T06:33:01.390Z,19.5
2022-08-07T06:34:02.192Z,19.5
2022-08-07T06:35:02.030Z,19.2
2022-08-07T06:36:07.142Z,19.4
2022-08-07T06:37:02.526Z,19.3
2022-08-07T06:38:01.384Z,19.7
2022-08-07T06:40:13.761Z,20
2022-08-07T06:40:13.918Z,20.2
2022-08-07T06:41:01.447Z,20.5
2022-08-07T06:42:03.512Z,20
2022-08-07T06:43:02.060Z,20
2022-08-07T06:44:06.593Z,19.8
2022-08-07T06:45:01.979Z,19.4
2022-08-07T06:46:01.683Z,19.6
2022-08-07T06:47:09.953Z,19.9
2022-08-07T06:48:02.221Z,19.9
2022-08-07T06:49:03.811Z,20.3
2022-08-07T06:50:01.375Z,20.1
2022-08-07T06:51:08.098Z,20.1
2022-08-07T06:52:07.519Z,20.5
2022-08-07T06:53:04.071Z,20.4
2022-08-07T06:54:12.352Z,20.2
2022-08-07T06:55:30.509Z,20.4
2022-08-07T06:56:01.908Z,20.4
2022-08-07T06:57:02.100Z,20.3
2022-08-07T06:58:01.628Z,20
2022-08-07T07:00:11.161Z,20.3
2022-08-07T07:00:11.189Z,20.1
2022-08-07T07:01:03.017Z,20.1
2022-08-07T07:02:01.729Z,20
2022-08-07T07:03:08.948Z,20.3
2022-08-07T07:04:08.323Z,20.9
2022-08-07T07:05:01.830Z,20.4
2022-08-07T07:06:02.161Z,20.4
2022-08-07T07:07:02.317Z,20.4
2022-08-07T07:08:07.051Z,20.5
2022-08-07T07:09:02.020Z,20.4
2022-08-07T07:10:01.819Z,20.5
2022-08-07T07:11:01.668Z,20.4
2022-08-07T07:12:07.077Z,20.7
2022-08-07T07:13:02.378Z,20.8
2022-08-07T07:14:02.696Z,21
2022-08-07T07:15:03.368Z,21.2
2022-08-07T07:16:01.750Z,21.1
2022-08-07T07:17:01.841Z,20.7
2022-08-07T07:18:02.125Z,20.4
2022-08-07T07:19:04.006Z,20.8
2022-08-07T07:20:01.477Z,20.9
2022-08-07T07:21:01.855Z,20.9
2022-08-07T07:22:04.387Z,20.9
2022-08-07T07:24:06.769Z,21.1
2022-08-07T07:24:06.995Z,21.1
2022-08-07T07:25:02.665Z,21.2
2022-08-07T07:26:31.865Z,21.3
2022-08-07T07:27:01.860Z,20.9
2022-08-07T07:28:02.222Z,20.8
2022-08-07T07:29:23.508Z,20.7
2022-08-07T07:30:09.528Z,20.5
2022-08-07T07:31:01.616Z,20.8
2022-08-07T07:32:01.772Z,21
2022-08-07T07:33:01.658Z,20.9
2022-08-07T07:34:01.610Z,21.2
2022-08-07T07:35:03.935Z,21
2022-08-07T07:36:05.137Z,21
2022-08-07T07:37:05.348Z,21.1
2022-08-07T07:38:02.319Z,21.2
2022-08-07T07:39:02.317Z,21.3
2022-08-07T07:40:02.168Z,21.5
2022-08-07T07:41:02.044Z,21.4
2022-08-07T07:42:02.401Z,21.4
2022-08-07T07:43:11.816Z,21.5
2022-08-07T07:44:15.112Z,21.5
2022-08-07T07:45:02.551Z,21.6
2022-08-07T07:46:36.334Z,21.8
2022-08-07T07:47:13.618Z,21.8
2022-08-07T07:48:01.808Z,21.8
2022-08-07T07:49:09.044Z,21.6
2022-08-07T07:50:32.245Z,21.4
2022-08-07T07:51:02.092Z,21.3
2022-08-07T07:52:01.962Z,21.4
2022-08-07T07:53:01.475Z,21.3
2022-08-07T07:54:01.343Z,21.1
2022-08-07T07:55:01.557Z,21.2
2022-08-07T07:56:02.314Z,21.3
2022-08-07T07:57:02.950Z,21.2
2022-08-07T07:58:02.251Z,21.1
2022-08-07T07:59:02.164Z,20.8
2022-08-07T08:00:02.188Z,21.2
2022-08-07T08:01:02.063Z,21.3
2022-08-07T08:02:05.362Z,21.3
2022-08-07T08:03:05.147Z,21.4
2022-08-07T08:04:06.872Z,21.5
2022-08-07T08:05:01.857Z,21.5
2022-08-07T08:06:02.203Z,21.6
2022-08-07T08:07:02.624Z,21.6
2022-08-07T08:08:01.944Z,21.6
2022-08-07T08:09:01.806Z,21.4
2022-08-07T08:10:05.159Z,20.9
2022-08-07T08:11:01.645Z,21.1
2022-08-07T08:12:03.710Z,21.1
2022-08-07T08:13:02.974Z,21.1
2022-08-07T08:14:02.023Z,21.3
2022-08-07T08:15:02.225Z,21.5
2022-08-07T08:16:02.433Z,21.7
2022-08-07T08:17:14.180Z,21.5
2022-08-07T08:18:02.113Z,21.4
2022-08-07T08:19:10.058Z,21.4
2022-08-07T08:20:16.514Z,21.6
2022-08-07T08:21:01.750Z,21.9
2022-08-07T08:22:03.481Z,21.8
2022-08-07T08:23:02.087Z,21.6
2022-08-07T08:24:01.930Z,21.7
2022-08-07T08:25:04.990Z,21.3
2022-08-07T08:26:06.608Z,21.6
2022-08-07T08:27:01.491Z,21.8
2022-08-07T08:28:01.566Z,22
2022-08-07T08:29:01.845Z,22.1
2022-08-07T08:30:02.963Z,21.9
2022-08-07T08:31:01.597Z,21.6
2022-08-07T08:32:16.897Z,21.6
2022-08-07T08:33:01.844Z,21.7
2022-08-07T08:34:01.911Z,21.6
2022-08-07T08:35:01.809Z,21.7
2022-08-07T08:36:01.852Z,21.9
2022-08-07T08:37:02.269Z,21.7
2022-08-07T08:38:02.930Z,21.6
2022-08-07T08:39:02.740Z,21.8
2022-08-07T08:40:02.002Z,21.8
2022-08-07T08:41:02.838Z,21.5
2022-08-07T08:42:02.034Z,21.8
2022-08-07T08:43:01.338Z,21.7
2022-08-07T08:44:02.044Z,21.8
2022-08-07T08:45:04.135Z,21.5
2022-08-07T08:46:01.143Z,21.3
2022-08-07T08:47:02.084Z,21.3
2022-08-07T08:48:02.364Z,21.3
2022-08-07T08:49:02.212Z,21.3
2022-08-07T08:50:03.021Z,21
2022-08-07T08:51:03.250Z,21.1
2022-08-07T08:52:13.568Z,21
2022-08-07T08:53:01.640Z,21
2022-08-07T08:54:01.512Z,21.3
2022-08-07T08:55:04.581Z,21.6
2022-08-07T08:56:01.483Z,21.8
2022-08-07T08:57:01.352Z,21.7
2022-08-07T08:58:01.674Z,21.9
2022-08-07T08:59:02.420Z,21.8
2022-08-07T09:00:01.796Z,21.9
2022-08-07T09:01:01.884Z,21.5
2022-08-07T09:02:02.045Z,21.3
2022-08-07T09:03:02.075Z,21.4
2022-08-07T09:04:01.922Z,21.4
2022-08-07T09:05:01.802Z,21.4
2022-08-07T09:06:02.245Z,21.6
2022-08-07T09:07:02.126Z,21.6
2022-08-07T09:08:01.715Z,21.7
2022-08-07T09:09:01.773Z,21.9
2022-08-07T09:10:02.502Z,21.8
2022-08-07T09:11:01.434Z,22.2
2022-08-07T09:12:09.070Z,22.1
2022-08-07T09:13:01.838Z,22.4
2022-08-07T09:14:01.530Z,22.5
2022-08-07T09:16:21.181Z,22.5
2022-08-07T09:16:21.235Z,22.5
2022-08-07T09:17:01.366Z,22.5
2022-08-07T09:18:07.294Z,22.6
2022-08-07T09:19:03.387Z,22.9
2022-08-07T09:20:01.852Z,22.7
2022-08-07T09:21:01.789Z,22.3
2022-08-07T09:22:10.192Z,22.4
2022-08-07T09:24:29.648Z,22.5
2022-08-07T09:24:30.267Z,22.5
2022-08-07T09:25:07.230Z,22.5
2022-08-07T09:26:01.666Z,22.7
2022-08-07T09:27:04.753Z,22.3
2022-08-07T09:28:02.937Z,22.4
2022-08-07T09:29:24.609Z,22.4
2022-08-07T09:30:08.154Z,22.7
2022-08-07T09:31:02.906Z,22.4
2022-08-07T09:32:01.911Z,22.7
2022-08-07T09:33:05.183Z,22.6
2022-08-07T09:34:02.047Z,22.3
2022-08-07T09:35:04.358Z,22.1
2022-08-07T09:36:05.551Z,22.2
2022-08-07T09:37:01.998Z,22.4
2022-08-07T09:38:01.955Z,22.7
2022-08-07T09:39:06.405Z,23
2022-08-07T09:40:01.384Z,23.2
2022-08-07T09:41:01.877Z,22.7
2022-08-07T09:42:04.085Z,22.9
2022-08-07T09:43:01.391Z,23.6
2022-08-07T09:44:06.317Z,23.3
2022-08-07T09:47:20.334Z,23.1
2022-08-07T09:47:26.588Z,22.7
2022-08-07T09:47:26.856Z,22.7
2022-08-07T09:48:05.098Z,22.8
2022-08-07T09:50:00.330Z,23
2022-08-07T09:50:18.715Z,22.9
2022-08-07T09:51:01.810Z,23.4
2022-08-07T09:52:11.056Z,23.8
2022-08-07T09:53:01.851Z,24.1
2022-08-07T09:54:02.730Z,24.1
2022-08-07T09:55:02.238Z,23.6
2022-08-07T09:56:02.917Z,23.4
2022-08-07T09:57:01.972Z,23
2022-08-07T09:58:02.143Z,23.3
2022-08-07T09:59:02.041Z,23.5
2022-08-07T10:00:02.068Z,23.1
2022-08-07T10:01:01.622Z,23.1
2022-08-07T10:02:01.662Z,23.2
2022-08-07T10:03:07.982Z,22.8
2022-08-07T10:04:04.324Z,22.9
2022-08-07T10:05:12.247Z,23.3
2022-08-07T10:06:02.820Z,23.5
2022-08-07T10:07:01.762Z,23.4
2022-08-07T10:08:02.684Z,23
2022-08-07T10:09:01.563Z,22.8
2022-08-07T10:10:02.796Z,23
2022-08-07T10:11:16.598Z,23.1
2022-08-07T10:12:05.616Z,23.1
2022-08-07T10:13:01.914Z,23
2022-08-07T10:14:02.464Z,23.2
2022-08-07T10:15:02.330Z,23.4
2022-08-07T10:16:01.983Z,23.9
2022-08-07T10:17:01.881Z,23.9
2022-08-07T10:18:03.148Z,24.1
2022-08-07T10:19:01.570Z,24.2
2022-08-07T10:20:01.709Z,24.5
2022-08-07T10:21:01.873Z,24.3
2022-08-07T10:22:15.274Z,24.1
2022-08-07T10:23:02.288Z,23.5
2022-08-07T10:24:04.663Z,23.2
2022-08-07T10:25:01.668Z,23
2022-08-07T10:26:01.654Z,23.2
2022-08-07T10:27:01.721Z,23.2
2022-08-07T10:28:02.435Z,23
2022-08-07T10:29:01.407Z,23
2022-08-07T10:30:02.266Z,22.8
2022-08-07T10:31:02.106Z,22.6
2022-08-07T10:32:01.786Z,22.4
2022-08-07T10:33:01.845Z,22.6
2022-08-07T10:34:05.299Z,22.3
2022-08-07T10:35:01.604Z,22.5
2022-08-07T10:36:05.379Z,22.4
2022-08-07T10:37:03.866Z,22.5
2022-08-07T10:38:21.925Z,22.2
2022-08-07T10:39:01.769Z,22.6
2022-08-07T10:40:03.620Z,22.4
2022-08-07T10:41:01.373Z,22.4
2022-08-07T10:42:09.573Z,22.3
2022-08-07T10:43:02.052Z,22.3
2022-08-07T10:44:02.479Z,22.5
2022-08-07T10:45:01.845Z,22.4
2022-08-07T10:46:01.960Z,22.5
2022-08-07T10:47:01.852Z,22
2022-08-07T10:48:03.673Z,22.2
2022-08-07T10:49:02.077Z,22.3
2022-08-07T10:50:01.992Z,22
2022-08-07T10:51:01.855Z,22.3
2022-08-07T10:52:13.590Z,22.5
2022-08-07T10:53:05.334Z,22.8
2022-08-07T10:54:01.779Z,22.7
2022-08-07T10:55:08.029Z,22.9
2022-08-07T10:56:02.193Z,23.4
2022-08-07T10:57:01.511Z,23.4
2022-08-07T10:58:02.196Z,23.7
2022-08-07T10:59:01.585Z,23.8
2022-08-07T11:00:01.648Z,24.3
2022-08-07T11:01:01.484Z,24.5
2022-08-07T11:02:02.722Z,24.7
2022-08-07T11:03:01.649Z,24.8
2022-08-07T11:04:16.850Z,25.1
2022-08-07T11:05:05.375Z,25.3
2022-08-07T11:06:01.610Z,24.8
2022-08-07T11:07:02.128Z,24.7
2022-08-07T11:08:02.697Z,24.7
2022-08-07T11:09:02.169Z,24.5
2022-08-07T11:10:08.343Z,24.3
2022-08-07T11:11:01.984Z,24.2
2022-08-07T11:12:01.822Z,24.1
2022-08-07T11:13:02.536Z,24.2
2022-08-07T11:14:43.112Z,24.4
2022-08-07T11:15:01.606Z,24.2
2022-08-07T11:16:01.734Z,24.5
2022-08-07T11:17:07.070Z,24.4
2022-08-07T11:18:03.509Z,24.6
2022-08-07T11:19:02.360Z,24.4
2022-08-07T11:20:03.173Z,24.1
2022-08-07T11:21:02.364Z,24.3
2022-08-07T11:22:01.888Z,24
2022-08-07T11:23:02.250Z,24.7
2022-08-07T11:24:02.099Z,25
2022-08-07T11:25:04.326Z,24.8
2022-08-07T11:26:05.961Z,24.4
2022-08-07T11:27:01.388Z,24.4
2022-08-07T11:28:04.240Z,24
2022-08-07T11:29:02.148Z,24.2
2022-08-07T11:30:10.358Z,24.2
2022-08-07T11:31:01.871Z,24.2
2022-08-07T11:32:01.726Z,24.3
2022-08-07T11:33:02.199Z,24.2
2022-08-07T11:34:02.207Z,24.4
2022-08-07T11:35:01.779Z,24.4
2022-08-07T11:36:04.656Z,24.6
2022-08-07T11:37:02.056Z,24.4
2022-08-07T11:38:10.624Z,24.8
2022-08-07T11:39:01.727Z,25
2022-08-07T11:40:03.831Z,24.5
2022-08-07T11:41:02.213Z,24.5
2022-08-07T11:42:02.990Z,24.2
2022-08-07T11:43:01.718Z,23.9
2022-08-07T11:44:12.338Z,24.1
2022-08-07T11:45:01.418Z,24
2022-08-07T11:46:01.915Z,24.1
2022-08-07T11:47:01.774Z,23.9
2022-08-07T11:48:02.742Z,24
2022-08-07T11:49:28.918Z,23.5
2022-08-07T11:50:25.667Z,23.8
2022-08-07T11:51:02.137Z,23.7
2022-08-07T11:52:02.519Z,23.8
2022-08-07T11:53:02.042Z,23.7
2022-08-07T11:54:03.163Z,23.8
2022-08-07T11:55:02.225Z,23.9
2022-08-07T11:56:09.817Z,24
2022-08-07T11:57:02.050Z,24.5
2022-08-07T11:58:01.811Z,25
2022-08-07T11:59:02.279Z,25.3
2022-08-07T12:00:08.600Z,25.1
2022-08-07T12:01:02.871Z,25.3
2022-08-07T12:02:01.485Z,25.4
2022-08-07T12:03:01.611Z,25.2
2022-08-07T12:04:01.646Z,24.9
2022-08-07T12:05:02.296Z,24.8
2022-08-07T12:06:02.329Z,24.6
2022-08-07T12:07:03.077Z,24.3
2022-08-07T12:08:03.651Z,23.9
2022-08-07T12:09:01.663Z,24
2022-08-07T12:10:02.373Z,23.8
2022-08-07T12:11:08.513Z,24.2
2022-08-07T12:12:09.913Z,24.2
2022-08-07T12:13:01.960Z,24.3
2022-08-07T12:14:01.810Z,24.3
2022-08-07T12:15:02.290Z,24.2
2022-08-07T12:16:06.402Z,24.3
2022-08-07T12:17:02.112Z,25.1
2022-08-07T12:18:03.198Z,25.1
2022-08-07T12:19:02.078Z,25.2
2022-08-07T12:20:03.412Z,24.7
2022-08-07T12:21:02.174Z,24.2
2022-08-07T12:22:38.291Z,24.6
2022-08-07T12:23:01.516Z,24.3
2022-08-07T12:24:06.485Z,24.3
2022-08-07T12:25:01.943Z,24.3
2022-08-07T12:26:06.224Z,24
2022-08-07T12:27:01.405Z,24.1
2022-08-07T12:28:04.253Z,23.8
2022-08-07T12:29:02.219Z,23.9
2022-08-07T12:30:01.544Z,24.1
2022-08-07T12:31:01.348Z,24
2022-08-07T12:32:04.259Z,23.6
2022-08-07T12:33:02.138Z,23.8
2022-08-07T12:34:03.981Z,23.7
2022-08-07T12:35:02.128Z,23.7
2022-08-07T12:36:02.497Z,23.7
2022-08-07T12:37:01.455Z,23.7
2022-08-07T12:38:08.890Z,23.9
2022-08-07T12:39:01.651Z,24.1
2022-08-07T12:40:01.590Z,24.1
2022-08-07T12:41:02.037Z,23.7
2022-08-07T12:42:02.455Z,24
2022-08-07T12:43:01.738Z,24.2
2022-08-07T12:44:05.178Z,24.7
2022-08-07T12:45:04.400Z,24.8
2022-08-07T12:46:02.011Z,25.1
2022-08-07T12:47:01.703Z,25.3
2022-08-07T12:48:02.106Z,25.5
2022-08-07T12:49:09.710Z,25.3
2022-08-07T12:50:04.795Z,25.2
2022-08-07T12:51:01.675Z,24.8
2022-08-07T12:52:11.928Z,25.1
2022-08-07T12:53:05.155Z,25.2
2022-08-07T12:54:02.471Z,25.2
2022-08-07T12:55:03.850Z,25.2
2022-08-07T12:56:01.964Z,25.1
2022-08-07T12:57:04.616Z,25.1
2022-08-07T12:58:02.603Z,25
2022-08-07T12:59:01.800Z,25.7
2022-08-07T13:00:01.657Z,26
2022-08-07T13:01:01.967Z,26
2022-08-07T13:02:01.485Z,26.1
2022-08-07T13:03:01.364Z,26.4
2022-08-07T13:04:04.635Z,26.7
2022-08-07T13:05:02.552Z,27.1
2022-08-07T13:06:16.918Z,27.1
2022-08-07T13:07:01.818Z,26.9
2022-08-07T13:08:11.833Z,26.8
2022-08-07T13:09:02.091Z,27.1
2022-08-07T13:10:20.294Z,27.4
2022-08-07T13:11:01.816Z,26.8
2022-08-07T13:12:10.337Z,26.4
2022-08-07T13:13:01.564Z,26.1
2022-08-07T13:14:01.743Z,26.3
2022-08-07T13:15:02.300Z,25.9
2022-08-07T13:16:02.216Z,25.5
2022-08-07T13:17:02.042Z,25.5
2022-08-07T13:18:01.484Z,25.6
2022-08-07T13:19:01.654Z,25.2
2022-08-07T13:20:01.692Z,25.2
2022-08-07T13:21:02.708Z,25.2
2022-08-07T13:22:09.807Z,25.3
2022-08-07T13:23:03.895Z,25
2022-08-07T13:24:04.014Z,25.1